Time;durP1;ratioP1;P1;durP2;ratioP2;P2;SDS_P1;SDS_P2;PMS_P1;PMS_P2;Temp;Humidity;BMP_temperature;BMP_pressure;BME280_temperature;BME280_humidity;BME280_pressure;Samples;Min_cycle;Max_cycle;Signal;HPM_P1;HPM_P2
2021/01/18 00:00:08;;;;;;;16.30;3.30;;;2.30;97.50;;;;;;5132618;28;20125;-56
2021/01/18 00:02:34;;;;;;;28.63;4.38;;;2.30;97.40;;;;;;5132665;27;20043;-56
2021/01/18 00:05:01;;;;;;;16.75;4.15;;;2.30;97.30;;;;;;5132530;27;20043;-56
2021/01/18 00:07:27;;;;;;;25.90;3.80;;;2.30;97.00;;;;;;5135380;27;20047;-55
2021/01/18 00:09:53;;;;;;;22.00;4.70;;;2.30;97.00;;;;;;5136130;27;20051;-56
2021/01/18 00:12:19;;;;;;;22.80;3.80;;;2.30;97.10;;;;;;5135933;27;20488;-55
2021/01/18 00:14:45;;;;;;;15.23;3.25;;;2.20;97.00;;;;;;5136323;27;20092;-56
2021/01/18 00:17:11;;;;;;;17.27;4.20;;;2.30;96.90;;;;;;5136255;27;20435;-56
2021/01/18 00:19:37;;;;;;;18.73;4.10;;;2.20;96.80;;;;;;5136212;27;20373;-55
2021/01/18 00:22:03;;;;;;;17.98;3.60;;;2.20;96.80;;;;;;5136040;27;20490;-54
2021/01/18 00:24:28;;;;;;;28.63;4.55;;;2.20;96.90;;;;;;5136074;27;20536;-55
2021/01/18 00:26:54;;;;;;;20.90;3.55;;;2.20;96.90;;;;;;5136164;27;20043;-56
2021/01/18 00:29:20;;;;;;;24.55;3.38;;;2.20;96.70;;;;;;5136165;27;20050;-56
2021/01/18 00:31:53;;;;;;;15.57;3.47;;;2.20;96.70;;;;;;5135993;27;20450;-55
2021/01/18 00:34:19;;;;;;;20.02;3.50;;;2.10;96.80;;;;;;5135926;27;20040;-55
2021/01/18 00:36:46;;;;;;;24.98;4.45;;;2.10;96.50;;;;;;5135812;27;20502;-54
2021/01/18 00:39:16;;;;;;;22.98;3.70;;;2.10;96.80;;;;;;5135631;27;20077;-55
2021/01/18 00:41:42;;;;;;;19.42;3.30;;;2.10;96.70;;;;;;5135958;27;20086;-56
2021/01/18 00:44:08;;;;;;;22.92;4.00;;;2.00;96.60;;;;;;5135799;27;20473;-56
2021/01/18 00:46:34;;;;;;;17.80;3.60;;;2.00;96.80;;;;;;5135900;27;20411;-55
2021/01/18 00:49:00;;;;;;;17.80;2.92;;;2.10;97.00;;;;;;5135423;27;20054;-55
2021/01/18 00:51:34;;;;;;;27.42;3.30;;;2.00;96.90;;;;;;5135460;27;20055;-54
2021/01/18 00:53:59;;;;;;;25.13;4.95;;;2.00;96.90;;;;;;5135267;27;20084;-55
2021/01/18 00:56:25;;;;;;;19.70;3.20;;;2.00;97.20;;;;;;5135199;27;20165;-56
2021/01/18 00:58:51;;;;;;;21.88;3.50;;;2.10;97.10;;;;;;5135506;27;20126;-56
2021/01/18 01:01:16;;;;;;;14.13;3.95;;;2.10;97.00;;;;;;5135385;27;20381;-53
2021/01/18 01:03:42;;;;;;;20.50;3.88;;;2.00;96.90;;;;;;5135566;27;20513;-54
2021/01/18 01:06:08;;;;;;;18.60;2.88;;;2.00;96.90;;;;;;5135171;27;20081;-55
2021/01/18 01:08:34;;;;;;;24.30;3.17;;;2.00;97.10;;;;;;5135403;27;20051;-56
2021/01/18 01:11:00;;;;;;;17.67;3.28;;;2.10;97.10;;;;;;5135242;27;20039;-56
2021/01/18 01:13:26;;;;;;;21.02;3.75;;;2.00;97.10;;;;;;5135023;27;20045;-56
2021/01/18 01:15:52;;;;;;;26.98;3.30;;;2.10;97.20;;;;;;5135095;27;20066;-55
2021/01/18 01:18:17;;;;;;;20.20;3.65;;;2.00;97.00;;;;;;5134407;27;20070;-55
2021/01/18 01:20:43;;;;;;;14.32;2.65;;;2.10;97.20;;;;;;5134961;27;20035;-56
2021/01/18 01:23:09;;;;;;;14.57;3.03;;;2.10;97.10;;;;;;5134801;27;20057;-55
2021/01/18 01:25:35;;;;;;;25.25;3.90;;;2.10;97.00;;;;;;5135295;27;20794;-56
2021/01/18 01:28:01;;;;;;;30.65;3.15;;;2.10;96.90;;;;;;5135038;27;20047;-55
2021/01/18 01:30:26;;;;;;;16.50;2.42;;;2.00;96.70;;;;;;5134865;27;20541;-55
2021/01/18 01:32:54;;;;;;;22.85;3.70;;;1.90;96.70;;;;;;5134672;27;20469;-56
2021/01/18 01:35:23;;;;;;;17.90;2.75;;;1.80;96.60;;;;;;5134660;27;20103;-54
2021/01/18 01:37:49;;;;;;;;;;;1.90;96.70;;;;;;5135681;27;20108;-56
2021/01/18 01:40:17;;;;;;;14.23;3.22;;;1.90;96.60;;;;;;5134850;27;19915;-54
2021/01/18 01:42:43;;;;;;;23.65;3.75;;;1.90;96.40;;;;;;5134671;27;20200;-55
2021/01/18 01:45:11;;;;;;;14.73;2.72;;;1.90;96.40;;;;;;5134393;27;20043;-56
2021/01/18 01:47:39;;;;;;;14.77;3.00;;;1.90;96.30;;;;;;5134494;27;20046;-56
2021/01/18 01:50:10;;;;;;;23.42;3.63;;;1.90;96.40;;;;;;5134525;27;20062;-56
2021/01/18 01:52:41;;;;;;;20.52;4.03;;;1.80;96.40;;;;;;5133869;27;20047;-56
2021/01/18 01:55:17;;;;;;;22.52;3.05;;;1.80;96.30;;;;;;5134291;27;20035;-55
2021/01/18 01:57:43;;;;;;;14.32;2.38;;;1.80;96.20;;;;;;5134256;27;20043;-55
2021/01/18 02:00:09;;;;;;;11.60;2.75;;;1.70;95.80;;;;;;5134123;27;20042;-53
2021/01/18 02:02:35;;;;;;;19.27;4.00;;;1.80;96.40;;;;;;5134081;27;20505;-56
2021/01/18 02:05:12;;;;;;;22.40;3.47;;;1.80;96.50;;;;;;5134103;27;20043;-56
2021/01/18 02:07:37;;;;;;;13.13;2.20;;;1.80;96.70;;;;;;5132799;27;20035;-56
2021/01/18 02:10:05;;;;;;;14.95;2.30;;;1.80;96.70;;;;;;5133914;27;20484;-55
2021/01/18 02:12:31;;;;;;;15.35;3.08;;;1.90;96.80;;;;;;5133912;27;20091;-55
2021/01/18 02:15:25;;;;;;;13.10;2.42;;;1.90;96.70;;;;;;5134012;27;20372;-55
2021/01/18 02:18:18;;;;;;;16.48;2.72;;;1.90;96.40;;;;;;5110961;28;20040;-55
2021/01/18 02:21:08;;;;;;;17.70;3.33;;;1.90;96.60;;;;;;5111008;28;20043;-55
2021/01/18 02:24:04;;;;;;;18.48;3.40;;;1.90;96.40;;;;;;5110867;28;20047;-54
2021/01/18 02:27:03;;;;;;;21.13;2.90;;;1.90;96.30;;;;;;5111050;28;20051;-55
2021/01/18 02:29:47;;;;;;;15.23;2.90;;;1.90;96.10;;;;;;5110099;28;20105;-56
2021/01/18 02:32:45;;;;;;;9.60;2.25;;;1.90;96.40;;;;;;5110805;28;20466;-56
2021/01/18 02:35:47;;;;;;;18.27;2.80;;;1.90;96.60;;;;;;5110708;28;20048;-54
2021/01/18 02:38:34;;;;;;;18.67;2.28;;;1.90;96.50;;;;;;5110831;28;20169;-56
2021/01/18 02:40:59;;;;;;;17.45;2.53;;;1.90;96.70;;;;;;5110667;28;20525;-54
2021/01/18 02:43:36;;;;;;;14.43;2.40;;;1.90;96.60;;;;;;5110556;28;20146;-55
2021/01/18 02:46:03;;;;;;;13.95;2.60;;;1.80;96.20;;;;;;5110358;28;20070;-55
2021/01/18 02:48:31;;;;;;;15.82;2.55;;;1.80;96.60;;;;;;5110433;28;20509;-56
2021/01/18 02:51:03;;;;;;;17.10;2.70;;;1.80;96.50;;;;;;5110262;28;20084;-56
2021/01/18 02:53:29;;;;;;;16.20;2.75;;;1.70;96.60;;;;;;5110364;28;20050;-55
2021/01/18 02:55:55;;;;;;;15.88;2.63;;;1.70;96.70;;;;;;5131372;27;20394;-56
2021/01/18 02:58:23;;;;;;;18.42;3.03;;;1.70;96.90;;;;;;5133254;27;20047;-56
2021/01/18 03:01:29;;;;;;;23.70;2.65;;;1.80;96.80;;;;;;5133115;27;20038;-56
2021/01/18 03:04:13;;;;;;;20.10;2.45;;;1.80;96.70;;;;;;5133295;27;20417;-56
2021/01/18 03:06:55;;;;;;;12.60;2.40;;;1.80;96.80;;;;;;5133000;27;20039;-55
2021/01/18 03:09:34;;;;;;;22.23;2.22;;;1.80;96.70;;;;;;5132961;27;20051;-56
2021/01/18 03:12:05;;;;;;;14.18;2.60;;;1.80;96.70;;;;;;5133224;27;20058;-54
2021/01/18 03:14:37;;;;;;;17.23;3.33;;;1.80;96.50;;;;;;5133046;28;20035;-55
2021/01/18 03:17:05;;;;;;;12.45;2.50;;;1.80;96.50;;;;;;5132929;27;20043;-56
2021/01/18 03:19:44;;;;;;;18.70;2.63;;;1.80;96.50;;;;;;5132939;28;20043;-55
2021/01/18 03:22:20;;;;;;;13.68;2.53;;;1.70;96.30;;;;;;5132903;28;20126;-56
2021/01/18 03:24:46;;;;;;;17.70;2.63;;;1.60;95.60;;;;;;5132836;28;20065;-55
2021/01/18 03:27:13;;;;;;;17.00;2.65;;;1.70;96.00;;;;;;5132929;27;20039;-54
2021/01/18 03:29:39;;;;;;;11.93;2.30;;;1.60;96.40;;;;;;5131859;27;20100;-55
2021/01/18 03:32:06;;;;;;;13.55;3.20;;;1.60;96.80;;;;;;5132722;28;20039;-55
2021/01/18 03:34:32;;;;;;;14.05;2.00;;;1.50;96.60;;;;;;5132744;27;20130;-55
2021/01/18 03:36:58;;;;;;;16.58;2.10;;;1.50;96.80;;;;;;5132970;28;20054;-56
2021/01/18 03:39:24;;;;;;;18.83;3.30;;;1.50;96.70;;;;;;5132806;28;20067;-54
2021/01/18 03:41:50;;;;;;;22.98;3.05;;;1.60;97.00;;;;;;5134786;27;20074;-54
2021/01/18 03:44:16;;;;;;;22.15;2.88;;;1.70;97.10;;;;;;5136869;27;20061;-55
2021/01/18 03:46:45;;;;;;;16.83;3.53;;;1.70;97.10;;;;;;5137216;27;20070;-55
2021/01/18 03:49:12;;;;;;;18.58;3.20;;;1.70;97.00;;;;;;5136755;27;20063;-56
2021/01/18 03:51:37;;;;;;;14.15;2.50;;;1.60;96.70;;;;;;5136466;27;20088;-55
2021/01/18 03:54:03;;;;;;;14.35;3.22;;;1.60;96.80;;;;;;5136585;27;20055;-55
2021/01/18 03:56:29;;;;;;;17.95;3.38;;;1.60;96.90;;;;;;5136548;27;20092;-56
2021/01/18 03:58:55;;;;;;;28.08;2.80;;;1.60;96.70;;;;;;5136374;27;20043;-55
2021/01/18 04:01:20;;;;;;;25.75;3.22;;;1.60;96.80;;;;;;5136581;27;20099;-55
2021/01/18 04:03:46;;;;;;;17.65;3.10;;;1.60;97.00;;;;;;5136946;27;20055;-55
2021/01/18 04:06:12;;;;;;;20.38;3.38;;;1.60;97.50;;;;;;5136511;27;20131;-55
2021/01/18 04:08:37;;;;;;;18.33;3.13;;;1.50;97.40;;;;;;5136438;27;20043;-55
2021/01/18 04:11:03;;;;;;;17.35;3.80;;;1.50;97.80;;;;;;5136294;27;20043;-56
2021/01/18 04:13:29;;;;;;;20.00;3.45;;;1.60;97.80;;;;;;5136165;27;20054;-55
2021/01/18 04:15:55;;;;;;;19.67;3.63;;;1.60;97.70;;;;;;5136058;27;20043;-55
2021/01/18 04:18:21;;;;;;;20.55;3.95;;;1.60;97.60;;;;;;5136067;27;20073;-56
2021/01/18 04:20:46;;;;;;;18.63;3.70;;;1.60;97.60;;;;;;5136007;27;20043;-56
2021/01/18 04:23:12;;;;;;;14.40;3.03;;;1.60;97.30;;;;;;5136261;27;20055;-55
2021/01/18 04:25:38;;;;;;;20.15;4.10;;;1.60;97.10;;;;;;5136017;27;20472;-56
2021/01/18 04:28:05;;;;;;;17.58;3.35;;;1.50;97.40;;;;;;5136173;27;20039;-56
2021/01/18 04:30:36;;;;;;;17.20;3.03;;;1.60;97.70;;;;;;5135977;27;20047;-55
2021/01/18 04:33:08;;;;;;;18.60;4.10;;;1.60;97.70;;;;;;5135973;27;20049;-55
2021/01/18 04:35:37;;;;;;;26.55;3.85;;;1.60;97.70;;;;;;5135899;27;20051;-54
2021/01/18 04:38:03;;;;;;;20.15;3.55;;;1.70;97.60;;;;;;5135752;27;20566;-55
2021/01/18 04:40:30;;;;;;;16.83;3.45;;;1.70;97.70;;;;;;5135756;27;20043;-55
2021/01/18 04:42:57;;;;;;;15.80;4.07;;;1.70;97.70;;;;;;5135520;27;20545;-56
2021/01/18 04:45:25;;;;;;;31.00;4.78;;;1.70;98.00;;;;;;5135515;27;20488;-56
2021/01/18 04:47:56;;;;;;;19.97;3.93;;;1.80;97.90;;;;;;5135663;27;20054;-55
2021/01/18 04:50:24;;;;;;;22.38;3.20;;;1.80;98.40;;;;;;5135762;27;20323;-54
2021/01/18 04:53:00;;;;;;;22.77;4.40;;;1.80;98.10;;;;;;5134348;27;20051;-56
2021/01/18 04:55:28;;;;;;;19.38;4.10;;;1.80;98.20;;;;;;5135421;27;20051;-56
2021/01/18 04:58:06;;;;;;;23.77;3.77;;;1.80;98.20;;;;;;5135651;27;20066;-55
2021/01/18 05:00:55;;;;;;;21.08;4.30;;;1.80;98.20;;;;;;5135459;27;20285;-55
2021/01/18 05:03:23;;;;;;;19.08;4.65;;;1.80;98.20;;;;;;5135266;27;20488;-56
2021/01/18 05:05:52;;;;;;;22.80;4.40;;;1.90;98.40;;;;;;5135096;27;20050;-56
2021/01/18 05:08:36;;;;;;;21.77;4.50;;;1.90;98.40;;;;;;5135252;27;20058;-55
2021/01/18 05:11:02;;;;;;;23.38;3.80;;;2.00;98.40;;;;;;5135375;27;20134;-56
2021/01/18 05:13:30;;;;;;;19.17;5.00;;;2.00;98.40;;;;;;5135280;27;20133;-56
2021/01/18 05:15:59;;;;;;;13.35;4.30;;;2.10;98.60;;;;;;5134949;27;20527;-56
2021/01/18 05:18:34;;;;;;;17.23;4.60;;;2.20;98.50;;;;;;5135074;27;20040;-56
2021/01/18 05:21:05;;;;;;;25.00;3.92;;;2.30;98.30;;;;;;5135222;27;20471;-55
2021/01/18 05:23:31;;;;;;;24.60;4.93;;;2.30;98.20;;;;;;5135116;27;20050;-55
2021/01/18 05:26:16;;;;;;;26.55;4.70;;;2.30;98.10;;;;;;5135139;27;20046;-56
2021/01/18 05:28:44;;;;;;;25.02;6.25;;;2.30;97.90;;;;;;5134791;27;20138;-56
2021/01/18 05:31:09;;;;;;;20.83;4.05;;;2.30;97.90;;;;;;5134869;27;20138;-55
2021/01/18 05:33:37;;;;;;;23.42;4.88;;;2.30;98.00;;;;;;5134760;27;20540;-55
2021/01/18 05:36:03;;;;;;;15.02;4.35;;;2.30;98.00;;;;;;5134691;27;20054;-56
2021/01/18 05:38:29;;;;;;;24.45;5.15;;;2.20;98.00;;;;;;5134583;27;20039;-55
2021/01/18 05:40:58;;;;;;;17.65;4.55;;;2.20;98.00;;;;;;5134634;27;20071;-55
2021/01/18 05:43:33;;;;;;;23.75;4.75;;;2.30;98.10;;;;;;5134596;27;20051;-55
2021/01/18 05:46:04;;;;;;;23.40;5.05;;;2.30;98.10;;;;;;5134846;27;20054;-55
2021/01/18 05:48:30;;;;;;;22.27;4.15;;;2.30;98.10;;;;;;5134561;27;20043;-56
2021/01/18 05:51:00;;;;;;;26.02;4.50;;;2.30;98.10;;;;;;5134384;27;20051;-56
2021/01/18 05:53:32;;;;;;;28.63;4.78;;;2.40;98.20;;;;;;5134209;27;20063;-55
2021/01/18 05:56:19;;;;;;;22.40;4.72;;;2.40;98.40;;;;;;5134154;27;20039;-56
2021/01/18 05:58:47;;;;;;;28.30;5.95;;;2.50;98.40;;;;;;5134352;27;20039;-55
2021/01/18 06:01:13;;;;;;;19.52;5.20;;;2.50;98.30;;;;;;5134186;27;20043;-56
2021/01/18 06:03:39;;;;;;;20.40;4.43;;;2.50;98.40;;;;;;5134208;27;20091;-55
2021/01/18 06:06:05;;;;;;;18.50;4.15;;;2.60;98.30;;;;;;5134011;27;20365;-56
2021/01/18 06:08:30;;;;;;;28.35;4.80;;;2.60;98.30;;;;;;5134015;27;20079;-56
2021/01/18 06:11:01;;;;;;;21.27;4.90;;;2.60;98.20;;;;;;5134145;27;20088;-56
2021/01/18 06:13:29;;;;;;;22.55;5.63;;;2.70;98.20;;;;;;5132656;27;20039;-56
2021/01/18 06:16:01;;;;;;;25.13;4.80;;;2.70;98.30;;;;;;5133940;27;20046;-55
2021/01/18 06:18:32;;;;;;;21.10;4.88;;;2.70;98.40;;;;;;5133822;27;20492;-55
2021/01/18 06:20:59;;;;;;;21.65;4.78;;;2.80;98.40;;;;;;5133905;27;20043;-54
2021/01/18 06:23:25;;;;;;;23.88;4.70;;;2.80;98.30;;;;;;5133930;27;20415;-56
2021/01/18 06:25:52;;;;;;;28.73;5.38;;;2.80;98.40;;;;;;5133834;27;20039;-55
2021/01/18 06:28:27;;;;;;;29.55;5.32;;;2.90;98.20;;;;;;5133787;27;20043;-54
2021/01/18 06:31:00;;;;;;;30.77;5.70;;;2.90;98.30;;;;;;5133555;27;20073;-55
2021/01/18 06:33:49;;;;;;;26.30;5.60;;;2.90;98.30;;;;;;5133331;27;20074;-55
2021/01/18 06:36:18;;;;;;;22.40;5.65;;;2.90;98.50;;;;;;5133436;27;20510;-55
2021/01/18 06:39:08;;;;;;;21.65;5.60;;;2.90;98.30;;;;;;5133649;27;20126;-55
2021/01/18 06:41:35;;;;;;;30.42;6.38;;;2.90;98.40;;;;;;5133368;27;20043;-56
2021/01/18 06:44:02;;;;;;;32.95;6.03;;;3.00;98.40;;;;;;5133345;27;20050;-55
2021/01/18 06:46:33;;;;;;;27.13;6.45;;;3.00;98.50;;;;;;5133462;27;20057;-56
2021/01/18 06:48:58;;;;;;;33.72;6.72;;;3.00;98.50;;;;;;5133512;27;20583;-55
2021/01/18 06:51:26;;;;;;;29.83;7.47;;;3.10;98.50;;;;;;5133130;27;20050;-56
2021/01/18 06:53:55;;;;;;;28.48;7.20;;;3.10;98.40;;;;;;5133350;27;20043;-56
2021/01/18 06:56:23;;;;;;;29.70;7.67;;;3.10;98.50;;;;;;5133283;27;20501;-55
2021/01/18 06:59:05;;;;;;;26.05;7.38;;;3.20;98.30;;;;;;5133335;27;20088;-54
2021/01/18 07:01:38;;;;;;;29.48;7.15;;;3.20;98.40;;;;;;5133305;27;20118;-53
2021/01/18 07:04:09;;;;;;;37.70;7.50;;;3.20;98.40;;;;;;5133273;27;20066;-54
2021/01/18 07:06:45;;;;;;;24.55;7.57;;;3.20;98.30;;;;;;5132838;27;20043;-55
2021/01/18 07:09:19;;;;;;;30.35;7.93;;;3.20;98.40;;;;;;5133039;27;20543;-56
2021/01/18 07:11:45;;;;;;;26.20;7.40;;;3.20;98.40;;;;;;5133258;27;20490;-55
2021/01/18 07:14:14;;;;;;;27.83;8.35;;;3.20;98.30;;;;;;5133088;27;20558;-55
2021/01/18 07:16:41;;;;;;;23.73;7.78;;;3.30;98.30;;;;;;5132716;27;20043;-54
2021/01/18 07:19:10;;;;;;;32.72;9.15;;;3.30;98.30;;;;;;5132743;28;20396;-56
2021/01/18 07:21:48;;;;;;;35.50;9.63;;;3.30;98.10;;;;;;5133172;27;20039;-55
2021/01/18 07:24:15;;;;;;;38.20;8.05;;;3.30;98.10;;;;;;5132960;27;20054;-56
2021/01/18 07:26:58;;;;;;;37.63;8.68;;;3.30;98.10;;;;;;5132738;27;20471;-55
2021/01/18 07:29:25;;;;;;;35.08;9.20;;;3.30;98.10;;;;;;5132763;28;20050;-55
2021/01/18 07:31:56;;;;;;;32.90;9.35;;;3.30;98.30;;;;;;5132734;27;20097;-56
2021/01/18 07:34:24;;;;;;;29.58;8.98;;;3.30;98.40;;;;;;5132782;27;20042;-56
2021/01/18 07:36:52;;;;;;;23.80;8.80;;;3.30;98.40;;;;;;5132814;27;20053;-55
2021/01/18 07:39:30;;;;;;;30.55;8.30;;;3.30;98.40;;;;;;5132758;28;20039;-56
2021/01/18 07:41:57;;;;;;;39.38;9.93;;;3.30;98.60;;;;;;5132732;27;20172;-56
2021/01/18 07:44:45;;;;;;;30.48;9.00;;;3.40;98.40;;;;;;5132756;27;20155;-56
2021/01/18 07:47:13;;;;;;;32.13;9.20;;;3.40;98.40;;;;;;5132990;27;20047;-56
2021/01/18 07:49:43;;;;;;;28.88;9.48;;;3.40;98.50;;;;;;5132774;28;20123;-55
2021/01/18 07:52:28;;;;;;;38.33;10.02;;;3.30;98.40;;;;;;5132532;27;20474;-55
2021/01/18 07:54:56;;;;;;;36.45;9.55;;;3.40;98.40;;;;;;5132747;27;20039;-55
2021/01/18 07:57:29;;;;;;;36.30;10.10;;;3.40;98.40;;;;;;5132797;27;20126;-56
2021/01/18 08:00:17;;;;;;;30.08;9.80;;;3.40;98.50;;;;;;5132608;27;20081;-56
2021/01/18 08:03:12;;;;;;;44.28;10.18;;;3.50;98.50;;;;;;5132349;27;20200;-56
2021/01/18 08:05:40;;;;;;;36.15;9.98;;;3.50;98.60;;;;;;5109956;28;20066;-56
2021/01/18 08:08:17;;;;;;;42.95;10.75;;;3.50;98.50;;;;;;5109681;28;20043;-57
2021/01/18 08:10:51;;;;;;;44.33;11.35;;;3.50;98.50;;;;;;5109632;28;20558;-56
2021/01/18 08:13:42;;;;;;;36.35;10.65;;;3.50;98.50;;;;;;5109559;28;20040;-56
2021/01/18 08:16:37;;;;;;;47.85;11.05;;;3.60;98.50;;;;;;5109940;28;20641;-56
2021/01/18 08:19:18;;;;;;;45.67;11.88;;;3.60;98.60;;;;;;5102259;28;20212;-56
2021/01/18 08:21:53;;;;;;;35.08;11.35;;;3.60;98.50;;;;;;5109607;28;20051;-56
2021/01/18 08:24:28;;;;;;;32.78;11.27;;;3.70;98.50;;;;;;5109510;28;20131;-57
2021/01/18 08:27:00;;;;;;;36.22;11.10;;;3.70;98.50;;;;;;5109512;28;20524;-57
2021/01/18 08:29:48;;;;;;;33.22;10.82;;;3.60;98.40;;;;;;5112608;28;20164;-56
2021/01/18 08:32:23;;;;;;;33.78;11.13;;;3.70;98.50;;;;;;5113277;28;20096;-57
2021/01/18 08:34:52;;;;;;;45.60;11.85;;;3.70;98.50;;;;;;5112937;28;20035;-56
2021/01/18 08:37:18;;;;;;;;;;;3.70;98.50;;;;;;5113466;28;20055;-57
2021/01/18 08:39:57;;;;;;;35.67;11.40;;;3.70;98.40;;;;;;5112910;28;19916;-56
2021/01/18 08:42:36;;;;;;;38.15;12.18;;;3.80;98.50;;;;;;5121306;27;20469;-56
2021/01/18 08:45:11;;;;;;;31.13;10.32;;;3.80;98.40;;;;;;5135887;27;20103;-57
2021/01/18 08:47:51;;;;;;;48.47;12.25;;;3.80;98.30;;;;;;5135443;27;20492;-56
2021/01/18 08:50:17;;;;;;;;;;;3.80;98.30;;;;;;5136230;27;20091;-56
2021/01/18 08:52:43;;;;;;;32.72;11.52;;;3.80;98.40;;;;;;5135369;27;19955;-57
2021/01/18 08:55:30;;;;;;;31.92;10.70;;;3.80;98.50;;;;;;5135932;27;20070;-56
2021/01/18 08:58:03;;;;;;;42.63;11.77;;;3.90;98.50;;;;;;5135273;27;20051;-56
2021/01/18 09:00:40;;;;;;;40.35;11.18;;;3.90;98.50;;;;;;5135646;27;20062;-57
2021/01/18 09:03:06;;;;;;;30.73;10.38;;;3.90;98.50;;;;;;5135408;27;20051;-56
2021/01/18 09:05:32;;;;;;;44.25;11.05;;;3.90;98.40;;;;;;5135258;27;20049;-56
2021/01/18 09:08:00;;;;;;;37.38;10.15;;;4.00;98.40;;;;;;5135473;27;20067;-56
2021/01/18 09:10:26;;;;;;;40.67;10.20;;;4.00;98.40;;;;;;5135056;27;20480;-56
2021/01/18 09:12:52;;;;;;;34.72;9.95;;;4.00;98.40;;;;;;5135197;27;20047;-57
2021/01/18 09:15:19;;;;;;;25.83;9.25;;;4.00;98.40;;;;;;5135268;27;20046;-56
2021/01/18 09:17:46;;;;;;;33.50;9.70;;;4.00;98.40;;;;;;5135169;27;20047;-56
2021/01/18 09:20:13;;;;;;;31.50;9.68;;;4.10;98.30;;;;;;5135029;27;20043;-56
2021/01/18 09:22:41;;;;;;;33.53;10.40;;;4.10;98.30;;;;;;5135156;27;20066;-56
2021/01/18 09:25:08;;;;;;;35.03;9.65;;;4.10;98.30;;;;;;5135064;27;20047;-56
2021/01/18 09:27:35;;;;;;;33.92;9.30;;;4.20;98.20;;;;;;5135093;27;20043;-56
2021/01/18 09:30:15;;;;;;;28.02;8.82;;;4.20;98.20;;;;;;5135062;27;20043;-56
2021/01/18 09:32:55;;;;;;;28.70;8.40;;;4.20;98.30;;;;;;5134797;27;20054;-56
2021/01/18 09:35:21;;;;;;;28.95;8.60;;;4.30;98.20;;;;;;5134805;27;20047;-56
2021/01/18 09:37:49;;;;;;;35.53;8.45;;;4.30;98.30;;;;;;5134715;27;20043;-56
2021/01/18 09:40:17;;;;;;;29.07;8.70;;;4.30;98.40;;;;;;5134257;27;20491;-57
2021/01/18 09:42:48;;;;;;;30.75;7.45;;;4.40;98.40;;;;;;5133362;27;20054;-56
2021/01/18 09:45:14;;;;;;;25.33;7.15;;;4.50;98.30;;;;;;5134714;27;20054;-56
2021/01/18 09:47:41;;;;;;;34.88;7.07;;;4.60;98.30;;;;;;5134206;27;20477;-56
2021/01/18 09:50:13;;;;;;;29.92;7.53;;;4.60;98.20;;;;;;5134352;27;20130;-57
2021/01/18 09:52:46;;;;;;;36.47;7.60;;;4.70;98.00;;;;;;5134077;27;20058;-56
2021/01/18 09:55:16;;;;;;;36.33;7.45;;;4.70;98.00;;;;;;5134426;27;20047;-56
2021/01/18 09:58:09;;;;;;;20.05;6.68;;;4.80;97.90;;;;;;5134274;27;20530;-57
2021/01/18 10:00:41;;;;;;;32.85;6.68;;;4.90;97.80;;;;;;5134217;27;20126;-57
2021/01/18 10:03:08;;;;;;;28.85;6.35;;;4.90;97.70;;;;;;5134065;27;20492;-57
2021/01/18 10:05:45;;;;;;;23.75;6.03;;;4.90;97.70;;;;;;5134093;27;20451;-57
2021/01/18 10:08:16;;;;;;;26.25;6.15;;;4.90;97.60;;;;;;5134319;27;20047;-57
2021/01/18 10:10:47;;;;;;;29.00;5.80;;;4.90;97.60;;;;;;5134215;27;20054;-57
2021/01/18 10:13:17;;;;;;;32.17;6.38;;;5.00;97.60;;;;;;5133908;27;20050;-57
2021/01/18 10:15:44;;;;;;;27.58;6.68;;;5.00;97.50;;;;;;5134014;27;20066;-57
2021/01/18 10:18:31;;;;;;;26.30;5.63;;;5.00;97.60;;;;;;5133873;27;20039;-57
2021/01/18 10:20:59;;;;;;;21.92;5.53;;;5.10;97.50;;;;;;5133612;27;20035;-56
2021/01/18 10:23:39;;;;;;;18.00;5.20;;;5.00;97.70;;;;;;5133826;27;20055;-57
2021/01/18 10:26:26;;;;;;;27.80;6.30;;;5.00;97.60;;;;;;5133892;27;20099;-56
2021/01/18 10:29:22;;;;;;;23.70;5.30;;;5.10;97.60;;;;;;5133597;27;20401;-57
2021/01/18 10:31:51;;;;;;;32.05;5.78;;;5.10;97.70;;;;;;5133834;27;20054;-57
2021/01/18 10:34:26;;;;;;;22.33;6.25;;;5.00;97.80;;;;;;5133350;27;20546;-57
2021/01/18 10:36:54;;;;;;;30.63;6.15;;;5.10;98.00;;;;;;5133476;27;20107;-56
2021/01/18 10:39:27;;;;;;;26.25;6.13;;;5.10;97.90;;;;;;5133592;27;20425;-57
2021/01/18 10:42:00;;;;;;;27.77;5.05;;;5.10;98.10;;;;;;5133485;27;20047;-57
2021/01/18 10:44:25;;;;;;;22.35;5.00;;;5.10;98.00;;;;;;5133429;27;20050;-56
2021/01/18 10:46:51;;;;;;;24.83;5.18;;;5.10;98.00;;;;;;5133328;27;20047;-56
2021/01/18 10:49:28;;;;;;;19.90;5.22;;;5.10;98.10;;;;;;5133378;27;20047;-57
2021/01/18 10:52:09;;;;;;;25.98;5.75;;;5.10;98.00;;;;;;5132710;27;20062;-57
2021/01/18 10:54:35;;;;;;;25.42;4.32;;;5.10;98.10;;;;;;5133421;27;20050;-57
2021/01/18 10:57:17;;;;;;;22.77;4.28;;;5.10;98.00;;;;;;5133397;27;20050;-57
2021/01/18 10:59:43;;;;;;;27.58;4.82;;;5.10;98.00;;;;;;5133279;27;20124;-56
2021/01/18 11:02:13;;;;;;;31.08;4.97;;;5.10;97.90;;;;;;5132956;27;20053;-57
2021/01/18 11:04:46;;;;;;;21.90;4.70;;;5.20;97.90;;;;;;5133460;27;20075;-56
2021/01/18 11:07:13;;;;;;;18.05;5.28;;;5.20;97.60;;;;;;5133260;27;20043;-56
2021/01/18 11:09:39;;;;;;;23.85;4.38;;;5.20;97.60;;;;;;5133271;27;20046;-57
2021/01/18 11:12:06;;;;;;;18.50;3.88;;;5.20;97.40;;;;;;5133094;27;20043;-57
2021/01/18 11:14:33;;;;;;;21.30;4.15;;;5.20;97.50;;;;;;5132835;27;20122;-57
2021/01/18 11:17:01;;;;;;;38.72;5.13;;;5.20;97.40;;;;;;5132971;27;20099;-57
2021/01/18 11:19:27;;;;;;;30.83;4.50;;;5.20;97.50;;;;;;5133012;28;20043;-56
2021/01/18 11:21:53;;;;;;;19.85;4.38;;;5.20;97.50;;;;;;5133060;27;20477;-57
2021/01/18 11:24:19;;;;;;;26.52;4.28;;;5.30;97.60;;;;;;5133138;28;20066;-56
2021/01/18 11:26:51;;;;;;;23.70;4.55;;;5.20;97.70;;;;;;5133119;28;20043;-56
2021/01/18 11:29:18;;;;;;;19.77;4.22;;;5.20;97.60;;;;;;5132817;28;20100;-56
2021/01/18 11:31:44;;;;;;;26.20;3.92;;;5.30;97.70;;;;;;5133091;28;20047;-56
2021/01/18 11:34:11;;;;;;;32.85;5.60;;;5.20;98.00;;;;;;5133096;28;20065;-56
2021/01/18 11:36:38;;;;;;;17.77;4.22;;;5.20;98.00;;;;;;5132980;27;20051;-56
2021/01/18 11:39:08;;;;;;;25.33;4.43;;;5.20;98.10;;;;;;5132932;27;20039;-56
2021/01/18 11:41:35;;;;;;;18.48;3.85;;;5.20;97.90;;;;;;5132787;28;20035;-56
2021/01/18 11:44:02;;;;;;;20.92;4.35;;;5.30;97.90;;;;;;5132825;28;20039;-56
2021/01/18 11:46:28;;;;;;;18.38;4.97;;;5.30;98.00;;;;;;5132999;28;20143;-56
2021/01/18 11:48:54;;;;;;;22.05;4.13;;;5.30;97.90;;;;;;5132560;27;20536;-56
2021/01/18 11:51:19;;;;;;;26.48;4.30;;;5.40;97.50;;;;;;5132574;28;20055;-56
2021/01/18 11:53:49;;;;;;;19.77;3.95;;;5.40;97.20;;;;;;5132592;28;20477;-56
2021/01/18 11:56:15;;;;;;;30.30;4.35;;;5.50;97.00;;;;;;5132595;28;20044;-56
2021/01/18 11:58:41;;;;;;;27.17;4.43;;;5.50;97.20;;;;;;5132743;28;20035;-57
2021/01/18 12:01:08;;;;;;;25.20;4.35;;;5.50;97.10;;;;;;5132661;28;20035;-57
2021/01/18 12:03:34;;;;;;;20.08;4.18;;;5.50;97.00;;;;;;5135893;27;20373;-56
2021/01/18 12:06:00;;;;;;;22.30;4.38;;;5.50;97.20;;;;;;5136539;27;20104;-57
2021/01/18 12:08:26;;;;;;;25.23;4.95;;;5.50;97.20;;;;;;5136477;27;20482;-57
2021/01/18 12:10:51;;;;;;;25.13;4.13;;;5.50;97.20;;;;;;5136216;27;20130;-56
2021/01/18 12:13:17;;;;;;;21.83;4.07;;;5.50;97.30;;;;;;5136207;27;20055;-56
2021/01/18 12:15:44;;;;;;;31.13;4.57;;;5.40;97.30;;;;;;5136161;27;20043;-56
2021/01/18 12:18:10;;;;;;;21.20;3.70;;;5.40;97.40;;;;;;5136376;27;20396;-56
2021/01/18 12:20:37;;;;;;;21.40;3.95;;;5.40;97.50;;;;;;5136159;27;20050;-56
2021/01/18 12:23:03;;;;;;;25.10;4.38;;;5.50;97.60;;;;;;5136263;27;20070;-56
2021/01/18 12:25:29;;;;;;;19.38;3.63;;;5.60;97.30;;;;;;5136067;27;20408;-56
2021/01/18 12:27:56;;;;;;;23.20;4.03;;;5.60;97.10;;;;;;5136037;27;20049;-56
2021/01/18 12:30:26;;;;;;;22.45;3.92;;;5.60;97.10;;;;;;5135874;27;20438;-57
2021/01/18 12:32:52;;;;;;;23.30;4.00;;;5.70;97.00;;;;;;5135992;27;20039;-56
2021/01/18 12:35:18;;;;;;;29.40;4.50;;;5.60;96.90;;;;;;5135985;27;20039;-56
2021/01/18 12:37:45;;;;;;;30.70;4.85;;;5.70;97.00;;;;;;5135886;27;20122;-57
2021/01/18 12:40:12;;;;;;;27.08;4.45;;;5.70;96.80;;;;;;5135918;27;20039;-56
2021/01/18 12:42:45;;;;;;;22.50;3.70;;;5.70;96.80;;;;;;5135882;27;20043;-57
2021/01/18 12:45:16;;;;;;;33.33;4.97;;;5.70;96.50;;;;;;5117816;27;20100;-57
2021/01/18 12:47:42;;;;;;;16.92;3.65;;;5.70;96.60;;;;;;5135723;27;20045;-57
2021/01/18 12:50:09;;;;;;;21.65;3.40;;;5.70;96.30;;;;;;5135843;27;20062;-57
2021/01/18 12:52:36;;;;;;;29.77;4.07;;;5.70;96.30;;;;;;5135326;27;20082;-57
2021/01/18 12:55:03;;;;;;;16.08;3.67;;;5.80;95.80;;;;;;5135759;27;20046;-57
2021/01/18 12:57:28;;;;;;;16.27;3.08;;;5.80;96.10;;;;;;5135695;27;20039;-56
2021/01/18 12:59:55;;;;;;;20.13;4.20;;;5.80;95.80;;;;;;5135461;27;20400;-56
2021/01/18 13:02:20;;;;;;;21.92;3.95;;;5.80;95.80;;;;;;5135803;27;20039;-56
2021/01/18 13:04:46;;;;;;;19.17;4.32;;;5.80;95.90;;;;;;5135529;27;20046;-57